createdAt,value
2023-04-15T00:00:39.324Z,20.1875
2023-04-15T00:01:43.276Z,20.1950
2023-04-15T00:02:47.318Z,20.1967
2023-04-15T00:03:51.460Z,20.1942
2023-04-15T00:04:55.711Z,20.2067
2023-04-15T00:05:59.577Z,20.2200
2023-04-15T00:07:03.699Z,20.2333
2023-04-15T00:08:07.584Z,20.2225
2023-04-15T00:09:11.469Z,20.2575
2023-04-15T00:10:15.365Z,20.2858
2023-04-15T00:11:19.269Z,20.3108
2023-04-15T00:12:23.155Z,20.3092
2023-04-15T00:13:27.055Z,20.3250
2023-04-15T00:14:31.170Z,20.3250
2023-04-15T00:15:35.064Z,20.3325
2023-04-15T00:16:39.072Z,20.3625
2023-04-15T00:17:43.015Z,20.3875
2023-04-15T00:18:46.914Z,20.3817
2023-04-15T00:19:50.783Z,20.3900
2023-04-15T00:20:54.692Z,20.4275
2023-04-15T00:21:58.816Z,20.4375
2023-04-15T00:23:02.684Z,20.4450
2023-04-15T00:24:06.557Z,20.4750
2023-04-15T00:25:10.479Z,20.4725
2023-04-15T00:26:14.377Z,20.4892
2023-04-15T00:27:18.255Z,20.5092
2023-04-15T00:28:22.141Z,20.5067
2023-04-15T00:29:26.051Z,20.5167
2023-04-15T00:30:29.959Z,20.5425
2023-04-15T00:31:33.972Z,20.5525
2023-04-15T00:32:37.926Z,20.5583
2023-04-15T00:33:41.783Z,20.5500
2023-04-15T00:34:45.924Z,20.5658
2023-04-15T00:35:49.805Z,20.5642
2023-04-15T00:36:53.933Z,20.5817
2023-04-15T00:37:57.809Z,20.6133
2023-04-15T00:39:01.843Z,20.6400
2023-04-15T00:40:05.821Z,20.6508
2023-04-15T00:41:09.705Z,20.6233
2023-04-15T00:42:13.605Z,20.6308
2023-04-15T00:43:17.487Z,20.6667
2023-04-15T00:44:21.608Z,20.6667
2023-04-15T00:45:25.470Z,20.7000
2023-04-15T00:46:29.381Z,20.7158
2023-04-15T00:47:33.276Z,20.7300
2023-04-15T00:48:37.167Z,20.7350
2023-04-15T00:49:41.044Z,20.7500
2023-04-15T00:50:44.968Z,20.7675
2023-04-15T00:51:48.839Z,20.7608
2023-04-15T00:52:52.753Z,20.7625
2023-04-15T00:53:56.627Z,20.7508
2023-04-15T00:55:00.775Z,20.7817
2023-04-15T00:56:04.681Z,20.7742
2023-04-15T00:57:08.561Z,20.8100
2023-04-15T00:58:12.464Z,20.7825
2023-04-15T00:59:16.342Z,20.7875
2023-04-15T01:00:20.250Z,20.7992
2023-04-15T01:01:24.466Z,20.8333
2023-04-15T01:02:28.519Z,20.8408
2023-04-15T01:03:32.652Z,20.8392
2023-04-15T01:04:36.848Z,20.8650
2023-04-15T01:05:40.758Z,20.8842
2023-04-15T01:06:41.199Z,20.8809
2023-04-15T01:07:45.073Z,20.9100
2023-04-15T01:08:48.956Z,20.8908
2023-04-15T01:09:52.841Z,20.8992
2023-04-15T01:10:56.736Z,20.9033
2023-04-15T01:12:00.624Z,20.9133
2023-04-15T01:13:04.535Z,20.9150
2023-04-15T01:14:08.418Z,20.9192
2023-04-15T01:15:12.333Z,20.9242
2023-04-15T01:16:16.269Z,20.9233
2023-04-15T01:17:20.191Z,20.9175
2023-04-15T01:18:24.052Z,20.9333
2023-04-15T01:19:27.952Z,20.9300
2023-04-15T01:20:31.833Z,20.9508
2023-04-15T01:21:35.979Z,20.9692
2023-04-15T01:22:39.867Z,20.9958
2023-04-15T01:23:43.759Z,20.9908
2023-04-15T01:24:47.649Z,20.9917
2023-04-15T01:25:51.543Z,20.9833
2023-04-15T01:26:55.447Z,20.9883
2023-04-15T01:27:59.337Z,20.9992
2023-04-15T01:29:03.241Z,20.9967
2023-04-15T01:30:07.116Z,21.0092
2023-04-15T01:31:11.089Z,21.0042
2023-04-15T01:32:15.007Z,21.0008
2023-04-15T01:33:18.889Z,21.0217
2023-04-15T01:34:22.783Z,21.0242
2023-04-15T01:35:26.664Z,21.0292
2023-04-15T01:36:30.573Z,21.0483
2023-04-15T01:37:34.697Z,21.0433
2023-04-15T01:38:38.587Z,21.0233
2023-04-15T01:39:42.478Z,21.0350
2023-04-15T01:40:46.382Z,21.0475
2023-04-15T01:41:50.491Z,21.0392
2023-04-15T01:42:54.401Z,21.0458
2023-04-15T01:43:58.278Z,21.0742
2023-04-15T01:45:02.200Z,21.0642
2023-04-15T01:46:06.070Z,21.0575
2023-04-15T01:47:10.191Z,21.0683
2023-04-15T01:48:14.092Z,21.0733
2023-04-15T01:49:17.985Z,21.0658
2023-04-15T01:50:21.888Z,21.0833
2023-04-15T01:51:25.761Z,21.0800
2023-04-15T01:52:29.903Z,21.1208
2023-04-15T01:53:33.786Z,21.1450
2023-04-15T01:54:37.714Z,21.1308
2023-04-15T01:55:41.589Z,21.1275
2023-04-15T01:56:41.927Z,21.1264
2023-04-15T01:57:45.818Z,21.1367
2023-04-15T01:58:49.726Z,21.1525
2023-04-15T01:59:53.612Z,21.1350
2023-04-15T02:00:57.586Z,21.1125
2023-04-15T02:02:01.462Z,21.1308
2023-04-15T02:03:05.577Z,21.1242
2023-04-15T02:04:05.822Z,21.1373
2023-04-15T02:06:14.427Z,21.1542
2023-04-15T02:07:18.590Z,21.1867
2023-04-15T02:08:23.007Z,21.2075
2023-04-15T02:09:26.912Z,21.2092
2023-04-15T02:10:31.687Z,21.2173
2023-04-15T02:11:35.568Z,21.2458
2023-04-15T02:12:39.454Z,21.2483
2023-04-15T02:13:43.373Z,21.2300
2023-04-15T02:14:47.262Z,21.2592
2023-04-15T02:15:51.150Z,21.2792
2023-04-15T02:16:55.287Z,21.2825
2023-04-15T02:17:59.204Z,21.2875
2023-04-15T02:19:03.399Z,21.2925
2023-04-15T02:20:07.247Z,21.3008
2023-04-15T02:21:11.110Z,21.3083
2023-04-15T02:22:14.993Z,21.3142
2023-04-15T02:23:18.891Z,21.3192
2023-04-15T02:24:22.807Z,21.3200
2023-04-15T02:25:26.689Z,21.3192
2023-04-15T02:26:30.600Z,21.3267
2023-04-15T02:27:34.508Z,21.3258
2023-04-15T02:28:38.421Z,21.3408
2023-04-15T02:29:42.303Z,21.3417
2023-04-15T02:30:46.189Z,21.3200
2023-04-15T02:31:50.125Z,21.3283
2023-04-15T02:32:54.058Z,21.3558
2023-04-15T02:33:57.948Z,21.3767
2023-04-15T02:35:01.854Z,21.3817
2023-04-15T02:36:05.736Z,21.3750
2023-04-15T02:37:06.147Z,21.3918
2023-04-15T02:38:10.031Z,21.3692
2023-04-15T02:39:13.917Z,21.3642
2023-04-15T02:40:17.805Z,21.3625
2023-04-15T02:41:21.705Z,21.3617
2023-04-15T02:42:25.614Z,21.3633
2023-04-15T02:43:29.501Z,21.3917
2023-04-15T02:44:33.627Z,21.3758
2023-04-15T02:45:37.563Z,21.3975
2023-04-15T02:46:41.691Z,21.4175
2023-04-15T02:47:45.590Z,21.4200
2023-04-15T02:48:49.463Z,21.4367
2023-04-15T02:49:53.350Z,21.4642
2023-04-15T02:50:57.230Z,21.4642
2023-04-15T02:52:01.149Z,21.4800
2023-04-15T02:53:05.026Z,21.4775
2023-04-15T02:54:08.929Z,21.4792
2023-04-15T02:55:12.866Z,21.4683
2023-04-15T02:56:16.713Z,21.4667
2023-04-15T02:57:20.621Z,21.4783
2023-04-15T02:58:24.507Z,21.4892
2023-04-15T02:59:28.735Z,21.4967
2023-04-15T03:00:32.636Z,21.5067
2023-04-15T03:01:36.796Z,21.4858
2023-04-15T03:02:40.737Z,21.4858
2023-04-15T03:03:44.742Z,21.4967
2023-04-15T03:04:48.710Z,21.4842
2023-04-15T03:05:52.618Z,21.5158
2023-04-15T03:06:56.478Z,21.5358
2023-04-15T03:08:00.379Z,21.5367
2023-04-15T03:09:04.278Z,21.5550
2023-04-15T03:10:08.156Z,21.5800
2023-04-15T03:11:12.062Z,21.6142
2023-04-15T03:12:15.945Z,21.5958
2023-04-15T03:13:19.846Z,21.5925
2023-04-15T03:14:23.716Z,21.6108
2023-04-15T03:15:27.668Z,21.6433
2023-04-15T03:16:31.535Z,21.7175
2023-04-15T03:17:35.453Z,21.7992
2023-04-15T03:18:39.319Z,21.8100
2023-04-15T03:19:43.232Z,21.8250
2023-04-15T03:20:47.184Z,21.8475
2023-04-15T03:21:51.030Z,21.8625
2023-04-15T03:22:54.921Z,21.8792
2023-04-15T03:23:58.815Z,21.8733
2023-04-15T03:25:02.710Z,21.9100
2023-04-15T03:26:06.810Z,21.9350
2023-04-15T03:27:10.710Z,21.9283
2023-04-15T03:28:14.614Z,21.8983
2023-04-15T03:29:14.979Z,21.9036
2023-04-15T03:30:18.875Z,21.9308
2023-04-15T03:31:23.062Z,21.9350
2023-04-15T03:32:27.005Z,21.9533
2023-04-15T03:33:30.842Z,21.9425
2023-04-15T03:34:34.948Z,21.9225
2023-04-15T03:35:38.836Z,21.9375
2023-04-15T03:36:42.723Z,21.9375
2023-04-15T03:37:46.597Z,21.9342
2023-04-15T03:38:50.522Z,21.9225
2023-04-15T03:39:54.400Z,21.9400
2023-04-15T03:40:58.274Z,21.9592
2023-04-15T03:42:02.337Z,21.9375
2023-04-15T03:43:06.225Z,21.9333
2023-04-15T03:44:10.498Z,21.9350
2023-04-15T03:45:14.403Z,21.9075
2023-04-15T03:46:18.330Z,21.8850
2023-04-15T03:47:22.223Z,21.8917
2023-04-15T03:48:26.087Z,21.9083
2023-04-15T03:49:30.282Z,21.9092
2023-04-15T03:50:34.170Z,21.9125
2023-04-15T03:51:38.043Z,21.8783
2023-04-15T03:52:41.958Z,21.8783
2023-04-15T03:53:45.860Z,21.8850
2023-04-15T03:54:49.749Z,21.8667
2023-04-15T03:55:53.644Z,21.8400
2023-04-15T03:56:57.528Z,21.8283
2023-04-15T03:58:01.431Z,21.8225
2023-04-15T03:59:05.336Z,21.8258
2023-04-15T04:00:09.240Z,21.8350
2023-04-15T04:01:13.144Z,21.8308
2023-04-15T04:02:17.121Z,21.8150
2023-04-15T04:03:21.235Z,21.7967
2023-04-15T04:04:25.406Z,21.7792
2023-04-15T04:05:29.280Z,21.7883
2023-04-15T04:06:33.189Z,21.7833
2023-04-15T04:07:37.065Z,21.7858
2023-04-15T04:08:40.937Z,21.7892
2023-04-15T04:09:46.630Z,21.7858
2023-04-15T04:10:45.768Z,21.7991
2023-04-15T04:11:50.412Z,21.7817
2023-04-15T04:12:54.306Z,21.7883
2023-04-15T04:13:58.187Z,21.7892
2023-04-15T04:15:02.082Z,21.7792
2023-04-15T04:16:02.301Z,21.8745
2023-04-15T04:17:06.368Z,21.9508
2023-04-15T04:18:10.289Z,22.0400
2023-04-15T04:19:14.387Z,22.1542
2023-04-15T04:20:18.260Z,22.2725
2023-04-15T04:21:22.154Z,22.4533
2023-04-15T04:22:26.039Z,22.8525
2023-04-15T04:23:29.948Z,23.0008
2023-04-15T04:24:34.053Z,23.1492
2023-04-15T04:25:37.955Z,23.1425
2023-04-15T04:26:42.055Z,23.1700
2023-04-15T04:27:45.996Z,23.2800
2023-04-15T04:28:49.870Z,23.2958
2023-04-15T04:29:53.769Z,23.3375
2023-04-15T04:30:57.659Z,23.3975
2023-04-15T04:32:01.611Z,23.4708
2023-04-15T04:33:05.583Z,23.5208
2023-04-15T04:34:09.706Z,23.5508
2023-04-15T04:35:13.596Z,23.5983
2023-04-15T04:36:17.463Z,23.6000
2023-04-15T04:37:21.362Z,23.6258
2023-04-15T04:38:25.277Z,23.5875
2023-04-15T04:39:29.373Z,23.5975
2023-04-15T04:40:33.264Z,23.6542
2023-04-15T04:41:37.131Z,23.6858
2023-04-15T04:42:41.082Z,23.6867
2023-04-15T04:43:45.189Z,23.7142
2023-04-15T04:44:49.058Z,23.7458
2023-04-15T04:45:52.969Z,23.6925
2023-04-15T04:46:57.050Z,23.7108
2023-04-15T04:48:01.042Z,23.7308
2023-04-15T04:49:05.084Z,23.7175
2023-04-15T04:50:09.001Z,23.7292
2023-04-15T04:51:12.881Z,23.7192
2023-04-15T04:52:16.783Z,23.7242
2023-04-15T04:53:20.670Z,23.6858
2023-04-15T04:54:24.584Z,23.6950
2023-04-15T04:55:28.474Z,23.7133
2023-04-15T04:56:32.358Z,23.6783
2023-04-15T04:57:36.257Z,23.6675
2023-04-15T04:58:36.628Z,23.6527
2023-04-15T04:59:40.529Z,23.6783
2023-04-15T05:00:44.422Z,23.6875
2023-04-15T05:01:48.431Z,23.6692
2023-04-15T05:02:52.609Z,23.6475
2023-04-15T05:03:56.656Z,23.6342
2023-04-15T05:05:00.641Z,23.6225
2023-04-15T05:06:04.521Z,23.6050
2023-04-15T05:07:08.457Z,23.6142
2023-04-15T05:08:12.348Z,23.6192
2023-04-15T05:09:16.428Z,23.6700
2023-04-15T05:10:20.327Z,23.6175
2023-04-15T05:11:24.220Z,23.5717
2023-04-15T05:12:28.101Z,23.6108
2023-04-15T05:13:31.977Z,23.5875
2023-04-15T05:14:35.886Z,23.5758
2023-04-15T05:15:39.879Z,23.5342
2023-04-15T05:16:43.787Z,23.4942
2023-04-15T05:17:47.750Z,23.4717
2023-04-15T05:18:51.611Z,23.4325
2023-04-15T05:19:55.522Z,23.3700
2023-04-15T05:20:59.427Z,23.3392
2023-04-15T05:22:03.306Z,23.3042
2023-04-15T05:23:07.183Z,23.2983
2023-04-15T05:24:11.077Z,23.3050
2023-04-15T05:25:14.988Z,23.3325
2023-04-15T05:26:19.146Z,23.3558
2023-04-15T05:27:23.045Z,23.3850
2023-04-15T05:28:27.183Z,23.4067
2023-04-15T05:29:31.073Z,23.3783
2023-04-15T05:30:34.975Z,23.3267
2023-04-15T05:31:38.896Z,23.2975
2023-04-15T05:32:42.777Z,23.2700
2023-04-15T05:33:46.659Z,23.2633
2023-04-15T05:34:50.559Z,23.2417
2023-04-15T05:35:54.450Z,23.2333
2023-04-15T05:36:58.363Z,23.2242
2023-04-15T05:38:02.243Z,23.2317
2023-04-15T05:39:06.155Z,23.2350
2023-04-15T05:40:10.048Z,23.2300
2023-04-15T05:41:13.913Z,23.2008
2023-04-15T05:42:17.841Z,23.1775
2023-04-15T05:43:23.268Z,23.1692
2023-04-15T05:44:27.174Z,23.2092
2023-04-15T05:45:31.058Z,23.2367
2023-04-15T05:46:35.233Z,23.2758
2023-04-15T05:47:39.154Z,23.3017
2023-04-15T05:48:43.024Z,23.3433
2023-04-15T05:49:46.916Z,23.3433
2023-04-15T05:50:50.823Z,23.3408
2023-04-15T05:51:54.736Z,23.3742
2023-04-15T05:52:58.642Z,23.3983
2023-04-15T05:54:02.747Z,23.4300
2023-04-15T05:55:06.621Z,23.4325
2023-04-15T05:56:10.754Z,23.4567
2023-04-15T05:57:14.638Z,23.4442
2023-04-15T05:58:18.532Z,23.4325
2023-04-15T05:59:22.412Z,23.4092
2023-04-15T06:00:26.293Z,23.3625
2023-04-15T06:01:30.190Z,23.3692
2023-04-15T06:02:34.126Z,23.3275
2023-04-15T06:03:38.181Z,23.3117
2023-04-15T06:04:42.116Z,23.3150
2023-04-15T06:05:45.999Z,23.3017
2023-04-15T06:06:49.910Z,23.2967
2023-04-15T06:07:53.817Z,23.2783
2023-04-15T06:08:57.720Z,23.2633
2023-04-15T06:10:01.648Z,23.2758
2023-04-15T06:11:05.755Z,23.2950
2023-04-15T06:12:09.641Z,23.3100
2023-04-15T06:13:13.858Z,23.3467
2023-04-15T06:14:17.742Z,23.4050
2023-04-15T06:15:21.641Z,23.4442
2023-04-15T06:16:25.576Z,23.4575
2023-04-15T06:17:29.436Z,23.4717
2023-04-15T06:18:33.316Z,23.4825
2023-04-15T06:19:37.215Z,23.4858
2023-04-15T06:20:41.102Z,23.4950
2023-04-15T06:21:45.016Z,23.5175
2023-04-15T06:22:48.891Z,23.5608
2023-04-15T06:23:53.023Z,23.5542
2023-04-15T06:24:56.899Z,23.5500
2023-04-15T06:26:01.116Z,23.5683
2023-04-15T06:27:05.031Z,23.5392
2023-04-15T06:28:08.917Z,23.5258
2023-04-15T06:29:12.822Z,23.4850
2023-04-15T06:30:16.703Z,23.4225
2023-04-15T06:31:17.129Z,23.3655
2023-04-15T06:32:21.050Z,23.3425
2023-04-15T06:33:24.937Z,23.3267
2023-04-15T06:34:28.807Z,23.3175
2023-04-15T06:35:32.719Z,23.3167
2023-04-15T06:36:36.605Z,23.3125
2023-04-15T06:37:40.521Z,23.3100
2023-04-15T06:38:44.393Z,23.3050
2023-04-15T06:39:48.319Z,23.3175
2023-04-15T06:40:52.401Z,23.3592
2023-04-15T06:41:56.302Z,23.3858
2023-04-15T06:43:00.179Z,23.4042
2023-04-15T06:44:04.301Z,23.4117
2023-04-15T06:45:08.205Z,23.4283
2023-04-15T06:46:12.118Z,23.4017
2023-04-15T06:47:16.071Z,23.4042
2023-04-15T06:48:19.962Z,23.3933
2023-04-15T06:49:23.833Z,23.4400
2023-04-15T06:50:27.750Z,23.4533
2023-04-15T06:51:31.628Z,23.3825
2023-04-15T06:52:35.531Z,23.3450
2023-04-15T06:53:39.412Z,23.3258
2023-04-15T06:54:43.292Z,23.3050
2023-04-15T06:55:47.173Z,23.2908
2023-04-15T06:56:51.078Z,23.3033
2023-04-15T06:57:54.988Z,23.3183
2023-04-15T06:58:58.900Z,23.3350
2023-04-15T07:00:02.750Z,23.3242
2023-04-15T07:01:06.725Z,23.3425
2023-04-15T07:02:10.670Z,23.3617
2023-04-15T07:03:14.642Z,23.3867
2023-04-15T07:04:18.588Z,23.4942
2023-04-15T07:05:22.456Z,23.4458
2023-04-15T07:06:26.340Z,23.4067
2023-04-15T07:07:30.245Z,23.4133
2023-04-15T07:08:34.165Z,23.4258
2023-04-15T07:09:38.082Z,23.4217
2023-04-15T07:10:42.210Z,23.4183
2023-04-15T07:11:46.123Z,23.4408
2023-04-15T07:12:50.016Z,23.4642
2023-04-15T07:13:53.921Z,23.4658
2023-04-15T07:14:57.805Z,23.5042
2023-04-15T07:16:01.919Z,23.5517
2023-04-15T07:17:05.861Z,23.5867
2023-04-15T07:18:10.029Z,23.5892
2023-04-15T07:19:13.906Z,23.6083
2023-04-15T07:20:17.809Z,23.6267
2023-04-15T07:21:21.721Z,23.6483
2023-04-15T07:22:25.600Z,23.6542
2023-04-15T07:23:29.516Z,23.6733
2023-04-15T07:24:33.376Z,23.6825
2023-04-15T07:25:37.490Z,23.7383
2023-04-15T07:26:41.377Z,23.7717
2023-04-15T07:27:45.277Z,23.8325
2023-04-15T07:28:49.502Z,23.8392
2023-04-15T07:29:53.388Z,23.9083
2023-04-15T07:30:57.313Z,23.9450
2023-04-15T07:32:01.202Z,23.9792
2023-04-15T07:33:05.426Z,24.0083
2023-04-15T07:34:09.294Z,24.0683
2023-04-15T07:35:13.172Z,24.0592
2023-04-15T07:36:17.070Z,24.0883
2023-04-15T07:37:20.959Z,24.1117
2023-04-15T07:38:24.853Z,24.1633
2023-04-15T07:39:28.816Z,24.2033
2023-04-15T07:40:32.676Z,24.2942
2023-04-15T07:41:36.616Z,24.3700
2023-04-15T07:42:41.523Z,24.3683
2023-04-15T07:43:45.654Z,24.4158
2023-04-15T07:44:49.525Z,24.4850
2023-04-15T07:45:53.436Z,24.5233
2023-04-15T07:46:57.293Z,24.5417
2023-04-15T07:48:01.470Z,24.5492
2023-04-15T07:49:05.343Z,24.6275
2023-04-15T07:50:09.230Z,24.6800
2023-04-15T07:51:13.175Z,24.7083
2023-04-15T07:52:17.075Z,24.7708
2023-04-15T07:53:20.973Z,24.7808
2023-04-15T07:54:24.869Z,24.8092
2023-04-15T07:55:28.761Z,24.8208
2023-04-15T07:56:32.675Z,24.8033
2023-04-15T07:57:36.542Z,24.7917
2023-04-15T07:58:40.465Z,24.8625
2023-04-15T07:59:44.324Z,24.8942
2023-04-15T08:00:48.482Z,24.8850
2023-04-15T08:01:52.405Z,24.9258
2023-04-15T08:02:56.675Z,24.9708
2023-04-15T08:04:00.783Z,24.9742
2023-04-15T08:05:04.795Z,24.9700
2023-04-15T08:06:08.720Z,24.9417
2023-04-15T08:07:12.610Z,24.9508
2023-04-15T08:08:16.524Z,24.9925
2023-04-15T08:09:20.412Z,25.0217
2023-04-15T08:10:24.424Z,25.0242
2023-04-15T08:11:28.304Z,25.0275
2023-04-15T08:12:32.236Z,25.0758
2023-04-15T08:13:36.124Z,25.0925
2023-04-15T08:14:40.030Z,25.1075
2023-04-15T08:15:43.939Z,25.0933
2023-04-15T08:16:47.833Z,25.1750
2023-04-15T08:17:51.743Z,25.2300
2023-04-15T08:18:55.634Z,25.2767
2023-04-15T08:19:59.516Z,25.3483
2023-04-15T08:21:03.418Z,25.4083
2023-04-15T08:22:10.934Z,25.3633
2023-04-15T08:23:11.794Z,25.4027
2023-04-15T08:24:15.701Z,25.5000
2023-04-15T08:25:19.856Z,25.4800
2023-04-15T08:26:23.733Z,25.5333
2023-04-15T08:27:27.628Z,25.5300
2023-04-15T08:28:31.725Z,25.5575
2023-04-15T08:29:35.612Z,25.5825
2023-04-15T08:30:39.520Z,25.5967
2023-04-15T08:31:43.422Z,25.6750
2023-04-15T08:32:47.590Z,25.5800
2023-04-15T08:33:51.581Z,25.5967
2023-04-15T08:34:55.497Z,25.6433
2023-04-15T08:35:59.381Z,25.6092
2023-04-15T08:37:03.293Z,25.6067
2023-04-15T08:38:07.199Z,25.6025
2023-04-15T08:39:11.114Z,25.5625
2023-04-15T08:40:15.211Z,25.5525
2023-04-15T08:41:19.094Z,25.5633
2023-04-15T08:42:22.980Z,25.5692
2023-04-15T08:43:27.178Z,25.6075
2023-04-15T08:44:31.061Z,25.5908
2023-04-15T08:45:34.964Z,25.5808
2023-04-15T08:46:38.866Z,25.6117
2023-04-15T08:47:42.760Z,25.5675
2023-04-15T08:48:46.643Z,25.5167
2023-04-15T08:49:50.528Z,25.4950
2023-04-15T08:50:54.404Z,25.5017
2023-04-15T08:51:58.310Z,25.4608
2023-04-15T08:53:02.232Z,25.4117
2023-04-15T08:54:06.159Z,25.3992
2023-04-15T08:55:10.657Z,25.3450
2023-04-15T08:56:14.550Z,25.3017
2023-04-15T08:57:18.440Z,25.2983
2023-04-15T08:58:22.573Z,25.3192
2023-04-15T08:59:26.482Z,25.2642
2023-04-15T09:00:30.373Z,25.2025
2023-04-15T09:01:34.376Z,25.2467
2023-04-15T09:02:38.344Z,25.2692
2023-04-15T09:03:42.447Z,25.2592
2023-04-15T09:04:46.369Z,25.3100
2023-04-15T09:05:52.705Z,25.2942
2023-04-15T09:06:51.791Z,25.4236
2023-04-15T09:07:55.715Z,25.3875
2023-04-15T09:08:59.629Z,25.4317
2023-04-15T09:10:03.784Z,25.4933
2023-04-15T09:11:07.701Z,25.5067
2023-04-15T09:12:11.625Z,25.5442
2023-04-15T09:13:15.738Z,25.6783
2023-04-15T09:14:19.648Z,25.8508
2023-04-15T09:15:23.552Z,25.9492
2023-04-15T09:16:27.501Z,25.9617
2023-04-15T09:17:31.446Z,26.0383
2023-04-15T09:18:35.341Z,26.0675
2023-04-15T09:19:39.280Z,26.0875
2023-04-15T09:20:43.144Z,26.0675
2023-04-15T09:21:47.049Z,26.1783
2023-04-15T09:22:50.945Z,26.2158
2023-04-15T09:23:54.853Z,26.2217
2023-04-15T09:24:58.858Z,26.2417
2023-04-15T09:26:02.748Z,26.2500
2023-04-15T09:27:06.631Z,26.2392
2023-04-15T09:28:10.557Z,26.4192
2023-04-15T09:29:14.398Z,26.3617
2023-04-15T09:30:18.302Z,26.4225
2023-04-15T09:31:22.244Z,26.6467
2023-04-15T09:32:26.562Z,26.5183
2023-04-15T09:33:30.447Z,26.5442
2023-04-15T09:34:34.351Z,26.5517
2023-04-15T09:35:38.271Z,26.6117
2023-04-15T09:36:42.154Z,26.7200
2023-04-15T09:37:46.057Z,26.6633
2023-04-15T09:38:49.943Z,26.6667
2023-04-15T09:39:53.854Z,26.6767
2023-04-15T09:40:57.751Z,26.6850
2023-04-15T09:42:01.725Z,26.7225
2023-04-15T09:43:05.852Z,26.7033
2023-04-15T09:44:09.736Z,26.7158
2023-04-15T09:45:13.860Z,26.7450
2023-04-15T09:46:17.780Z,26.7083
2023-04-15T09:47:21.709Z,26.6683
2023-04-15T09:48:25.571Z,26.6358
2023-04-15T09:49:29.522Z,26.6442
2023-04-15T09:50:33.419Z,26.6600
2023-04-15T09:51:37.323Z,26.6425
2023-04-15T09:52:41.243Z,26.5750
2023-04-15T09:53:45.137Z,26.5458
2023-04-15T09:54:49.200Z,26.3725
2023-04-15T09:55:53.114Z,26.3933
2023-04-15T09:56:57.017Z,26.3467
2023-04-15T09:58:00.913Z,26.3467
2023-04-15T09:59:04.820Z,26.2100
2023-04-15T10:00:08.721Z,25.7833
2023-04-15T10:01:12.613Z,25.7783
2023-04-15T10:02:16.626Z,25.3833
2023-04-15T10:03:20.763Z,25.1167
2023-04-15T10:04:25.021Z,25.3558
2023-04-15T10:05:29.831Z,25.6733
2023-04-15T10:06:34.126Z,25.5567
2023-04-15T10:07:38.040Z,25.4858
2023-04-15T10:08:41.952Z,25.5175
2023-04-15T10:09:46.034Z,25.5358
2023-04-15T10:10:49.948Z,25.5233
2023-04-15T10:11:54.112Z,25.5300
2023-04-15T10:12:58.018Z,25.4967
2023-04-15T10:14:02.344Z,25.4650
2023-04-15T10:15:06.366Z,25.4433
2023-04-15T10:16:10.331Z,25.4158
2023-04-15T10:17:14.254Z,25.4367
2023-04-15T10:18:18.152Z,25.4025
2023-04-15T10:19:22.295Z,25.3733
2023-04-15T10:20:26.209Z,25.3300
2023-04-15T10:21:30.086Z,25.3575
2023-04-15T10:22:33.991Z,25.3725
2023-04-15T10:23:37.887Z,25.4058
2023-04-15T10:24:41.787Z,25.4258
2023-04-15T10:25:45.684Z,25.4375
2023-04-15T10:26:49.618Z,25.4192
2023-04-15T10:27:53.480Z,25.4483
2023-04-15T10:28:58.414Z,25.4383
2023-04-15T10:29:58.126Z,25.4445
2023-04-15T10:31:02.048Z,25.5483
2023-04-15T10:32:05.945Z,25.5600
2023-04-15T10:33:09.826Z,25.5567
2023-04-15T10:34:14.015Z,25.5600
2023-04-15T10:35:17.912Z,25.6125
2023-04-15T10:36:21.796Z,25.6533
2023-04-15T10:37:25.668Z,25.8392
2023-04-15T10:38:29.579Z,25.7542
2023-04-15T10:39:33.464Z,25.8542
2023-04-15T10:40:37.354Z,25.8583
2023-04-15T10:41:41.363Z,25.8767
2023-04-15T10:42:45.270Z,25.9567
2023-04-15T10:43:49.160Z,25.9517
2023-04-15T10:44:53.069Z,26.0117
2023-04-15T10:45:56.954Z,26.0175
2023-04-15T10:47:00.954Z,25.9633
2023-04-15T10:48:04.865Z,25.9833
2023-04-15T10:49:08.750Z,26.0275
2023-04-15T10:50:12.909Z,26.0408
2023-04-15T10:51:16.809Z,26.1542
2023-04-15T10:52:20.710Z,26.1758
2023-04-15T10:53:24.598Z,26.2133
2023-04-15T10:54:28.494Z,26.3083
2023-04-15T10:55:32.514Z,26.2750
2023-04-15T10:56:36.676Z,26.4242
2023-04-15T10:57:40.526Z,26.4475
2023-04-15T10:58:44.457Z,26.5042
2023-04-15T10:59:48.564Z,26.6458
2023-04-15T11:00:52.452Z,26.4933
2023-04-15T11:01:56.738Z,26.6658
2023-04-15T11:03:00.971Z,26.8150
2023-04-15T11:04:05.163Z,26.8533
2023-04-15T11:05:09.218Z,26.7550
2023-04-15T11:06:13.112Z,26.6525
2023-04-15T11:07:17.002Z,26.8783
2023-04-15T11:08:20.914Z,26.8358
2023-04-15T11:09:24.765Z,26.8650
2023-04-15T11:10:28.640Z,26.9683
2023-04-15T11:11:32.767Z,26.9433
2023-04-15T11:12:36.696Z,26.8775
2023-04-15T11:13:40.560Z,26.8283
2023-04-15T11:14:44.684Z,26.7875
2023-04-15T11:15:48.561Z,26.8133
2023-04-15T11:16:52.490Z,26.8100
2023-04-15T11:17:56.428Z,26.8283
2023-04-15T11:19:00.376Z,26.6817
2023-04-15T11:20:04.507Z,26.6475
2023-04-15T11:21:08.395Z,26.5892
2023-04-15T11:22:12.286Z,26.6300
2023-04-15T11:23:16.221Z,26.5408
2023-04-15T11:24:20.095Z,26.4983
2023-04-15T11:25:24.228Z,26.4875
2023-04-15T11:26:28.368Z,26.5175
2023-04-15T11:27:32.236Z,26.5775
2023-04-15T11:28:36.806Z,26.6033
2023-04-15T11:29:36.294Z,26.6664
2023-04-15T11:30:40.236Z,26.7342
2023-04-15T11:31:44.137Z,26.7383
2023-04-15T11:32:48.051Z,26.7900
2023-04-15T11:33:51.958Z,26.7567
2023-04-15T11:34:55.845Z,26.7717
2023-04-15T11:35:59.742Z,26.7675
2023-04-15T11:37:03.629Z,26.7708
2023-04-15T11:38:07.523Z,26.6950
2023-04-15T11:39:11.456Z,26.7942
2023-04-15T11:40:15.391Z,26.8975
2023-04-15T11:41:19.237Z,26.8283
2023-04-15T11:42:23.437Z,26.8667
2023-04-15T11:43:27.329Z,26.9358
2023-04-15T11:44:31.468Z,26.9733
2023-04-15T11:45:35.390Z,27.0200
2023-04-15T11:46:39.252Z,27.1742
2023-04-15T11:47:43.192Z,27.1583
2023-04-15T11:48:47.106Z,27.1517
2023-04-15T11:49:50.993Z,27.1950
2023-04-15T11:50:54.904Z,27.1825
2023-04-15T11:51:58.798Z,27.2675
2023-04-15T11:53:02.707Z,27.2858
2023-04-15T11:54:06.720Z,27.2325
2023-04-15T11:55:10.742Z,27.2583
2023-04-15T11:56:14.622Z,27.2983
2023-04-15T11:57:18.756Z,27.2725
2023-04-15T11:58:22.662Z,27.4692
2023-04-15T11:59:38.948Z,27.5183
2023-04-15T12:00:31.255Z,27.4836
2023-04-15T12:01:35.217Z,27.4717
2023-04-15T12:02:39.227Z,27.4517
2023-04-15T12:03:43.276Z,27.3858
2023-04-15T12:04:47.556Z,27.5100
2023-04-15T12:05:51.426Z,27.4567
2023-04-15T12:06:55.338Z,27.4417
2023-04-15T12:07:59.230Z,27.4242
2023-04-15T12:09:03.474Z,27.3892
2023-04-15T12:10:07.348Z,27.3925
2023-04-15T12:11:11.226Z,27.3675
2023-04-15T12:12:15.361Z,27.3167
2023-04-15T12:13:19.244Z,27.3058
2023-04-15T12:14:23.149Z,27.2908
2023-04-15T12:15:27.034Z,27.2933
2023-04-15T12:16:30.933Z,27.2675
2023-04-15T12:17:52.153Z,27.2192
2023-04-15T12:18:39.310Z,27.1600
2023-04-15T12:19:43.420Z,27.1600
2023-04-15T12:20:47.299Z,27.1183
2023-04-15T12:21:51.202Z,27.0617
2023-04-15T12:22:55.086Z,27.2308
2023-04-15T12:23:59.305Z,27.2358
2023-04-15T12:25:03.203Z,27.3558
2023-04-15T12:26:07.087Z,27.2675
2023-04-15T12:27:11.302Z,27.2150
2023-04-15T12:28:15.189Z,27.2058
2023-04-15T12:29:19.139Z,27.1933
2023-04-15T12:30:22.983Z,27.2475
2023-04-15T12:31:26.911Z,27.3158
2023-04-15T12:32:30.799Z,27.3292
2023-04-15T12:33:34.716Z,27.3650
2023-04-15T12:34:38.586Z,27.4033
2023-04-15T12:35:42.489Z,27.2558
2023-04-15T12:36:46.405Z,27.2475
2023-04-15T12:37:50.273Z,27.2358
2023-04-15T12:38:54.421Z,27.1658
2023-04-15T12:39:58.274Z,27.1775
2023-04-15T12:41:02.168Z,27.1608
2023-04-15T12:42:06.080Z,27.1333
2023-04-15T12:43:09.977Z,27.1308
2023-04-15T12:44:13.864Z,27.0692
2023-04-15T12:45:17.777Z,27.0683
2023-04-15T12:46:21.770Z,27.0675
2023-04-15T12:47:25.756Z,26.9875
2023-04-15T12:48:29.656Z,27.0233
2023-04-15T12:49:33.601Z,26.9708
2023-04-15T12:50:37.508Z,26.9083
2023-04-15T12:51:41.395Z,26.8933
2023-04-15T12:52:45.303Z,26.8633
2023-04-15T12:53:49.413Z,26.7633